sensor_id;sensor_type;location;lat;lon;timestamp;pressure;altitude;pressure_sealevel;temperature;humidity
78623;BME280;67943;54.412;9.502;2023-03-01T00:01:37;103056.47;;;2.00;75.52
78623;BME280;67943;54.412;9.502;2023-03-01T00:06:39;103042.38;;;1.95;75.05
78623;BME280;67943;54.412;9.502;2023-03-01T00:11:42;103034.28;;;1.89;75.29
78623;BME280;67943;54.412;9.502;2023-03-01T00:16:45;103027.63;;;1.78;75.21
78623;BME280;67943;54.412;9.502;2023-03-01T00:21:46;103031.34;;;1.65;75.66
78623;BME280;67943;54.412;9.502;2023-03-01T00:26:52;103025.38;;;1.50;76.43
78623;BME280;67943;54.412;9.502;2023-03-01T00:31:55;103023.59;;;1.49;76.75
78623;BME280;67943;54.412;9.502;2023-03-01T00:36:57;103034.13;;;1.52;76.79
78623;BME280;67943;54.412;9.502;2023-03-01T00:42:06;103033.97;;;1.49;77.14
78623;BME280;67943;54.412;9.502;2023-03-01T00:47:07;103038.34;;;1.50;77.38
78623;BME280;67943;54.412;9.502;2023-03-01T00:52:09;103040.03;;;1.49;77.64
78623;BME280;67943;54.412;9.502;2023-03-01T00:57:12;103035.91;;;1.53;77.29
78623;BME280;67943;54.412;9.502;2023-03-01T01:02:13;103053.97;;;1.51;77.26
78623;BME280;67943;54.412;9.502;2023-03-01T01:07:15;103046.13;;;1.50;77.11
78623;BME280;67943;54.412;9.502;2023-03-01T01:12:18;103047.75;;;1.48;77.60
78623;BME280;67943;54.412;9.502;2023-03-01T01:17:20;103041.28;;;1.40;77.74
78623;BME280;67943;54.412;9.502;2023-03-01T01:22:21;103034.78;;;1.48;77.89
78623;BME280;67943;54.412;9.502;2023-03-01T01:27:24;103039.16;;;1.49;77.34
78623;BME280;67943;54.412;9.502;2023-03-01T01:32:25;103033.66;;;1.43;77.35
78623;BME280;67943;54.412;9.502;2023-03-01T01:37:27;103022.09;;;1.36;77.77
78623;BME280;67943;54.412;9.502;2023-03-01T01:42:32;103014.72;;;1.27;78.12
78623;BME280;67943;54.412;9.502;2023-03-01T01:47:34;103008.53;;;1.25;78.12
78623;BME280;67943;54.412;9.502;2023-03-01T01:52:37;103003.38;;;1.25;78.09
78623;BME280;67943;54.412;9.502;2023-03-01T01:57:44;103004.19;;;1.24;78.08
78623;BME280;67943;54.412;9.502;2023-03-01T02:02:48;103003.03;;;1.19;78.09
78623;BME280;67943;54.412;9.502;2023-03-01T02:07:52;102999.25;;;1.13;77.70
78623;BME280;67943;54.412;9.502;2023-03-01T02:12:55;102981.94;;;1.12;78.04
78623;BME280;67943;54.412;9.502;2023-03-01T02:17:57;102988.81;;;1.11;78.27
78623;BME280;67943;54.412;9.502;2023-03-01T02:22:59;102979.34;;;1.12;78.40
78623;BME280;67943;54.412;9.502;2023-03-01T02:28:10;102988.72;;;1.10;77.94
78623;BME280;67943;54.412;9.502;2023-03-01T02:33:14;102990.28;;;1.06;78.35
78623;BME280;67943;54.412;9.502;2023-03-01T02:38:16;102982.97;;;0.99;78.47
78623;BME280;67943;54.412;9.502;2023-03-01T02:43:19;102979.00;;;0.89;78.82
78623;BME280;67943;54.412;9.502;2023-03-01T02:48:25;102971.94;;;0.87;78.40
78623;BME280;67943;54.412;9.502;2023-03-01T02:53:34;102977.06;;;0.69;78.62
78623;BME280;67943;54.412;9.502;2023-03-01T02:58:39;102975.84;;;0.62;79.15
78623;BME280;67943;54.412;9.502;2023-03-01T03:03:47;102961.78;;;0.57;79.46
78623;BME280;67943;54.412;9.502;2023-03-01T03:08:48;102961.78;;;0.57;79.89
78623;BME280;67943;54.412;9.502;2023-03-01T03:13:50;102957.31;;;0.55;78.83
78623;BME280;67943;54.412;9.502;2023-03-01T03:18:53;102950.41;;;0.39;79.92
78623;BME280;67943;54.412;9.502;2023-03-01T03:23:55;102951.56;;;0.44;79.72
78623;BME280;67943;54.412;9.502;2023-03-01T03:28:56;102947.19;;;0.43;78.96
78623;BME280;67943;54.412;9.502;2023-03-01T03:33:59;102931.63;;;0.43;79.19
78623;BME280;67943;54.412;9.502;2023-03-01T03:39:01;102935.38;;;0.48;79.05
78623;BME280;67943;54.412;9.502;2023-03-01T03:44:03;102931.81;;;0.46;79.00
78623;BME280;67943;54.412;9.502;2023-03-01T03:49:05;102935.19;;;0.45;79.29
78623;BME280;67943;54.412;9.502;2023-03-01T03:54:07;102930.53;;;0.54;79.49
78623;BME280;67943;54.412;9.502;2023-03-01T03:59:09;102933.41;;;0.44;79.06
78623;BME280;67943;54.412;9.502;2023-03-01T04:04:12;102929.13;;;0.45;79.21
78623;BME280;67943;54.412;9.502;2023-03-01T04:09:18;102925.56;;;0.43;78.36
78623;BME280;67943;54.412;9.502;2023-03-01T04:14:19;102928.63;;;0.36;78.24
78623;BME280;67943;54.412;9.502;2023-03-01T04:19:22;102917.78;;;0.26;78.32
78623;BME280;67943;54.412;9.502;2023-03-01T04:24:23;102921.91;;;0.23;78.29
78623;BME280;67943;54.412;9.502;2023-03-01T04:29:25;102914.69;;;0.17;78.63
78623;BME280;67943;54.412;9.502;2023-03-01T04:34:27;102921.41;;;0.14;78.82
78623;BME280;67943;54.412;9.502;2023-03-01T04:39:29;102919.78;;;0.16;78.91
78623;BME280;67943;54.412;9.502;2023-03-01T04:44:31;102922.53;;;0.19;78.99
78623;BME280;67943;54.412;9.502;2023-03-01T04:49:33;102930.22;;;0.17;78.32
78623;BME280;67943;54.412;9.502;2023-03-01T04:54:35;102919.44;;;0.10;78.58
78623;BME280;67943;54.412;9.502;2023-03-01T04:59:37;102917.72;;;-0.06;79.08
78623;BME280;67943;54.412;9.502;2023-03-01T05:04:40;102920.31;;;-0.06;79.40
78623;BME280;67943;54.412;9.502;2023-03-01T05:09:42;102906.78;;;-0.17;79.03
78623;BME280;67943;54.412;9.502;2023-03-01T05:14:43;102911.13;;;-0.16;79.13
78623;BME280;67943;54.412;9.502;2023-03-01T05:19:46;102919.72;;;-0.17;79.35
78623;BME280;67943;54.412;9.502;2023-03-01T05:24:47;102914.88;;;-0.11;79.67
78623;BME280;67943;54.412;9.502;2023-03-01T05:29:49;102918.00;;;-0.02;78.61
78623;BME280;67943;54.412;9.502;2023-03-01T05:34:52;102930.41;;;-0.11;79.11
78623;BME280;67943;54.412;9.502;2023-03-01T05:39:55;102926.56;;;-0.03;79.08
78623;BME280;67943;54.412;9.502;2023-03-01T05:44:56;102927.81;;;-0.11;79.40
78623;BME280;67943;54.412;9.502;2023-03-01T05:49:59;102924.88;;;-0.17;79.58
78623;BME280;67943;54.412;9.502;2023-03-01T05:55:01;102933.63;;;-0.15;79.79
78623;BME280;67943;54.412;9.502;2023-03-01T06:00:03;102927.22;;;-0.21;79.97
78623;BME280;67943;54.412;9.502;2023-03-01T06:05:09;102931.22;;;-0.26;80.46
78623;BME280;67943;54.412;9.502;2023-03-01T06:10:12;102929.72;;;-0.23;80.33
78623;BME280;67943;54.412;9.502;2023-03-01T06:15:15;102926.34;;;-0.37;80.28
78623;BME280;67943;54.412;9.502;2023-03-01T06:20:19;102927.25;;;-0.36;80.49
78623;BME280;67943;54.412;9.502;2023-03-01T06:25:23;102913.50;;;-0.35;80.70
78623;BME280;67943;54.412;9.502;2023-03-01T06:30:26;102921.28;;;-0.35;80.57
78623;BME280;67943;54.412;9.502;2023-03-01T06:35:29;102929.72;;;-0.23;80.49
78623;BME280;67943;54.412;9.502;2023-03-01T06:40:31;102920.97;;;-0.25;80.20
78623;BME280;67943;54.412;9.502;2023-03-01T06:45:36;102933.28;;;-0.21;80.13
78623;BME280;67943;54.412;9.502;2023-03-01T06:50:39;102930.50;;;-0.09;80.26
78623;BME280;67943;54.412;9.502;2023-03-01T06:55:41;102935.03;;;-0.05;79.80
78623;BME280;67943;54.412;9.502;2023-03-01T07:00:42;102923.97;;;-0.03;79.55
78623;BME280;67943;54.412;9.502;2023-03-01T07:05:48;102925.78;;;0.15;79.54
78623;BME280;67943;54.412;9.502;2023-03-01T07:10:54;102928.34;;;-0.02;79.40
78623;BME280;67943;54.412;9.502;2023-03-01T07:15:56;102925.25;;;0.06;79.97
78623;BME280;67943;54.412;9.502;2023-03-01T07:21:04;102934.44;;;0.15;79.77
78623;BME280;67943;54.412;9.502;2023-03-01T07:26:05;102933.44;;;0.13;79.78
78623;BME280;67943;54.412;9.502;2023-03-01T07:31:06;102948.19;;;0.14;79.54
78623;BME280;67943;54.412;9.502;2023-03-01T07:36:09;102938.34;;;0.23;79.44
78623;BME280;67943;54.412;9.502;2023-03-01T07:41:11;102939.41;;;0.27;78.71
78623;BME280;67943;54.412;9.502;2023-03-01T07:46:12;102950.06;;;0.33;78.85
78623;BME280;67943;54.412;9.502;2023-03-01T07:51:15;102950.78;;;0.30;78.60
78623;BME280;67943;54.412;9.502;2023-03-01T07:56:17;102951.69;;;0.31;78.90
78623;BME280;67943;54.412;9.502;2023-03-01T08:01:20;102944.41;;;0.40;79.57
78623;BME280;67943;54.412;9.502;2023-03-01T08:06:23;102941.34;;;0.63;78.84
78623;BME280;67943;54.412;9.502;2023-03-01T08:11:25;102949.03;;;0.62;78.83
78623;BME280;67943;54.412;9.502;2023-03-01T08:16:28;102955.59;;;0.72;78.89
78623;BME280;67943;54.412;9.502;2023-03-01T08:21:31;102953.69;;;0.84;79.03
78623;BME280;67943;54.412;9.502;2023-03-01T08:26:34;102944.91;;;0.98;78.77
78623;BME280;67943;54.412;9.502;2023-03-01T08:31:37;102941.97;;;1.08;78.62
78623;BME280;67943;54.412;9.502;2023-03-01T08:36:42;102949.03;;;1.11;78.98
78623;BME280;67943;54.412;9.502;2023-03-01T08:41:44;102946.50;;;1.12;78.13
78623;BME280;67943;54.412;9.502;2023-03-01T08:46:46;102935.03;;;1.25;78.09
78623;BME280;67943;54.412;9.502;2023-03-01T08:51:51;102931.06;;;1.31;78.33
78623;BME280;67943;54.412;9.502;2023-03-01T08:56:53;102940.28;;;1.43;77.85
78623;BME280;67943;54.412;9.502;2023-03-01T09:01:54;102941.44;;;1.49;77.85
78623;BME280;67943;54.412;9.502;2023-03-01T09:06:57;102948.06;;;1.60;77.72
78623;BME280;67943;54.412;9.502;2023-03-01T09:11:59;102945.94;;;1.69;77.44
78623;BME280;67943;54.412;9.502;2023-03-01T09:17:00;102932.28;;;1.91;77.25
78623;BME280;67943;54.412;9.502;2023-03-01T09:22:04;102932.25;;;2.09;76.28
78623;BME280;67943;54.412;9.502;2023-03-01T09:27:06;102931.56;;;2.13;76.05
78623;BME280;67943;54.412;9.502;2023-03-01T09:32:08;102923.47;;;2.25;75.01
78623;BME280;67943;54.412;9.502;2023-03-01T09:37:11;102946.78;;;2.06;75.24
78623;BME280;67943;54.412;9.502;2023-03-01T09:42:15;102947.09;;;2.12;75.83
78623;BME280;67943;54.412;9.502;2023-03-01T09:47:18;102956.97;;;2.38;74.61
78623;BME280;67943;54.412;9.502;2023-03-01T09:52:26;102970.94;;;2.40;75.20
78623;BME280;67943;54.412;9.502;2023-03-01T09:57:36;102976.84;;;2.55;74.53
78623;BME280;67943;54.412;9.502;2023-03-01T10:02:44;102978.78;;;2.59;74.53
78623;BME280;67943;54.412;9.502;2023-03-01T10:07:53;102970.69;;;2.53;73.20
78623;BME280;67943;54.412;9.502;2023-03-01T10:13:00;102972.19;;;2.67;73.83
78623;BME280;67943;54.412;9.502;2023-03-01T10:18:09;102970.56;;;2.89;73.30
78623;BME280;67943;54.412;9.502;2023-03-01T10:23:15;102971.50;;;2.91;71.91
78623;BME280;67943;54.412;9.502;2023-03-01T10:28:17;102979.25;;;2.89;72.69
78623;BME280;67943;54.412;9.502;2023-03-01T10:33:23;102961.09;;;2.91;72.72
78623;BME280;67943;54.412;9.502;2023-03-01T10:38:30;102964.53;;;2.70;72.42
78623;BME280;67943;54.412;9.502;2023-03-01T10:43:43;102955.72;;;2.67;73.25
78623;BME280;67943;54.412;9.502;2023-03-01T10:48:45;102954.72;;;2.83;73.62
78623;BME280;67943;54.412;9.502;2023-03-01T10:53:49;102958.41;;;3.28;73.18
78623;BME280;67943;54.412;9.502;2023-03-01T10:58:59;102942.84;;;3.29;71.34
78623;BME280;67943;54.412;9.502;2023-03-01T11:04:11;102960.56;;;3.17;72.13
78623;BME280;67943;54.412;9.502;2023-03-01T11:09:17;102951.00;;;3.18;72.05
78623;BME280;67943;54.412;9.502;2023-03-01T11:14:21;102945.81;;;3.18;72.80
78623;BME280;67943;54.412;9.502;2023-03-01T11:19:23;102939.13;;;3.44;72.07
78623;BME280;67943;54.412;9.502;2023-03-01T11:24:31;102939.56;;;3.54;72.32
78623;BME280;67943;54.412;9.502;2023-03-01T11:29:38;102936.97;;;3.75;71.34
78623;BME280;67943;54.412;9.502;2023-03-01T11:34:44;102937.47;;;3.66;72.04
78623;BME280;67943;54.412;9.502;2023-03-01T11:39:55;102930.56;;;3.67;72.29
78623;BME280;67943;54.412;9.502;2023-03-01T11:45:02;102930.44;;;3.86;71.33
78623;BME280;67943;54.412;9.502;2023-03-01T11:50:19;102916.97;;;3.96;70.29
78623;BME280;67943;54.412;9.502;2023-03-01T11:55:36;102916.72;;;4.13;70.78
78623;BME280;67943;54.412;9.502;2023-03-01T12:00:55;102914.31;;;4.17;71.08
78623;BME280;67943;54.412;9.502;2023-03-01T12:06:10;102914.66;;;4.26;71.36
78623;BME280;67943;54.412;9.502;2023-03-01T12:11:24;102891.03;;;4.69;70.16
78623;BME280;67943;54.412;9.502;2023-03-01T12:16:36;102892.09;;;4.74;69.99
78623;BME280;67943;54.412;9.502;2023-03-01T12:21:53;102893.78;;;4.72;70.78
78623;BME280;67943;54.412;9.502;2023-03-01T12:27:09;102897.78;;;5.12;69.89
78623;BME280;67943;54.412;9.502;2023-03-01T12:32:26;102899.84;;;5.22;69.57
78623;BME280;67943;54.412;9.502;2023-03-01T12:37:47;102891.34;;;5.55;68.12
78623;BME280;67943;54.412;9.502;2023-03-01T12:43:02;102885.22;;;5.81;67.76
78623;BME280;67943;54.412;9.502;2023-03-01T12:48:18;102874.66;;;6.03;66.04
78623;BME280;67943;54.412;9.502;2023-03-01T12:53:25;102859.13;;;6.09;66.57
78623;BME280;67943;54.412;9.502;2023-03-01T12:58:32;102858.22;;;6.37;66.87
78623;BME280;67943;54.412;9.502;2023-03-01T13:03:42;102863.47;;;7.02;64.22
78623;BME280;67943;54.412;9.502;2023-03-01T13:08:56;102848.22;;;8.78;59.49
78623;BME280;67943;54.412;9.502;2023-03-01T13:14:36;102846.09;;;8.17;60.30
78623;BME280;67943;54.412;9.502;2023-03-01T13:19:38;102846.00;;;9.01;59.49
78623;BME280;67943;54.412;9.502;2023-03-01T13:24:42;102834.09;;;10.45;55.01
78623;BME280;67943;54.412;9.502;2023-03-01T13:29:46;102829.84;;;9.29;55.83
78623;BME280;67943;54.412;9.502;2023-03-01T13:34:50;102832.25;;;8.24;58.80
78623;BME280;67943;54.412;9.502;2023-03-01T13:39:52;102816.97;;;7.64;61.35
78623;BME280;67943;54.412;9.502;2023-03-01T13:44:56;102818.53;;;7.18;62.67
78623;BME280;67943;54.412;9.502;2023-03-01T13:49:59;102820.78;;;6.71;64.59
78623;BME280;67943;54.412;9.502;2023-03-01T13:55:03;102815.16;;;6.56;65.27
78623;BME280;67943;54.412;9.502;2023-03-01T14:05:24;102809.84;;;6.22;66.95
78623;BME280;67943;54.412;9.502;2023-03-01T14:10:31;102803.63;;;6.18;66.99
78623;BME280;67943;54.412;9.502;2023-03-01T14:15:37;102802.41;;;6.05;67.70
78623;BME280;67943;54.412;9.502;2023-03-01T14:20:44;102789.81;;;5.92;68.03
78623;BME280;67943;54.412;9.502;2023-03-01T14:25:53;102801.19;;;5.66;69.50
78623;BME280;67943;54.412;9.502;2023-03-01T14:30:58;102794.19;;;5.65;69.64
78623;BME280;67943;54.412;9.502;2023-03-01T14:36:01;102796.13;;;5.70;69.62
78623;BME280;67943;54.412;9.502;2023-03-01T14:41:05;102789.13;;;5.69;69.64
78623;BME280;67943;54.412;9.502;2023-03-01T14:46:19;102796.06;;;5.69;69.69
78623;BME280;67943;54.412;9.502;2023-03-01T14:51:21;102798.25;;;5.55;70.32
78623;BME280;67943;54.412;9.502;2023-03-01T14:56:23;102794.59;;;5.50;70.66
78623;BME280;67943;54.412;9.502;2023-03-01T15:01:26;102784.78;;;5.41;71.18
78623;BME280;67943;54.412;9.502;2023-03-01T15:06:29;102774.53;;;5.48;71.06
78623;BME280;67943;54.412;9.502;2023-03-01T15:11:32;102764.91;;;5.47;70.81
78623;BME280;67943;54.412;9.502;2023-03-01T15:16:38;102769.22;;;5.45;71.12
78623;BME280;67943;54.412;9.502;2023-03-01T15:21:44;102761.38;;;5.45;70.91
78623;BME280;67943;54.412;9.502;2023-03-01T15:26:51;102753.44;;;5.41;70.75
78623;BME280;67943;54.412;9.502;2023-03-01T15:31:58;102749.91;;;5.39;70.89
78623;BME280;67943;54.412;9.502;2023-03-01T15:37:01;102753.34;;;5.38;71.09
78623;BME280;67943;54.412;9.502;2023-03-01T15:42:04;102760.28;;;5.38;71.46
78623;BME280;67943;54.412;9.502;2023-03-01T15:47:22;102755.91;;;5.37;71.38
78623;BME280;67943;54.412;9.502;2023-03-01T15:52:26;102749.31;;;5.21;72.34
78623;BME280;67943;54.412;9.502;2023-03-01T15:57:29;102755.41;;;5.22;72.21
78623;BME280;67943;54.412;9.502;2023-03-01T16:02:32;102756.81;;;5.11;72.72
78623;BME280;67943;54.412;9.502;2023-03-01T16:07:34;102752.38;;;5.08;72.66
78623;BME280;67943;54.412;9.502;2023-03-01T16:12:39;102745.19;;;5.01;73.15
78623;BME280;67943;54.412;9.502;2023-03-01T16:17:42;102755.53;;;4.98;73.08
78623;BME280;67943;54.412;9.502;2023-03-01T16:22:45;102751.69;;;4.87;73.52
78623;BME280;67943;54.412;9.502;2023-03-01T16:27:48;102751.69;;;4.87;73.48
78623;BME280;67943;54.412;9.502;2023-03-01T16:32:51;102747.72;;;4.72;73.83
78623;BME280;67943;54.412;9.502;2023-03-01T16:37:52;102735.63;;;4.74;73.96
78623;BME280;67943;54.412;9.502;2023-03-01T16:42:55;102735.47;;;4.70;74.00
78623;BME280;67943;54.412;9.502;2023-03-01T16:48:01;102725.00;;;4.68;73.73
78623;BME280;67943;54.412;9.502;2023-03-01T16:53:02;102736.97;;;4.63;74.01
78623;BME280;67943;54.412;9.502;2023-03-01T16:58:04;102736.91;;;4.60;73.87
78623;BME280;67943;54.412;9.502;2023-03-01T17:03:07;102735.81;;;4.54;73.89
78623;BME280;67943;54.412;9.502;2023-03-01T17:08:08;102746.78;;;4.45;73.79
78623;BME280;67943;54.412;9.502;2023-03-01T17:13:10;102752.72;;;4.41;73.66
78623;BME280;67943;54.412;9.502;2023-03-01T17:18:13;102753.41;;;4.35;73.52
78623;BME280;67943;54.412;9.502;2023-03-01T17:23:14;102751.53;;;4.31;73.95
78623;BME280;67943;54.412;9.502;2023-03-01T17:28:16;102760.97;;;4.28;73.80
78623;BME280;67943;54.412;9.502;2023-03-01T17:33:19;102751.81;;;4.15;74.14
78623;BME280;67943;54.412;9.502;2023-03-01T17:38:21;102749.94;;;4.11;74.13
78623;BME280;67943;54.412;9.502;2023-03-01T17:43:22;102762.19;;;4.14;74.16
78623;BME280;67943;54.412;9.502;2023-03-01T17:48:25;102775.72;;;4.03;74.78
78623;BME280;67943;54.412;9.502;2023-03-01T17:53:27;102785.09;;;3.98;74.67
78623;BME280;67943;54.412;9.502;2023-03-01T17:58:29;102784.97;;;3.95;74.73
78623;BME280;67943;54.412;9.502;2023-03-01T18:03:32;102784.72;;;3.89;74.59
78623;BME280;67943;54.412;9.502;2023-03-01T18:08:34;102781.94;;;3.85;74.62
78623;BME280;67943;54.412;9.502;2023-03-01T18:13:36;102788.31;;;3.69;74.99
78623;BME280;67943;54.412;9.502;2023-03-01T18:18:40;102789.91;;;3.65;75.33
78623;BME280;67943;54.412;9.502;2023-03-01T18:23:44;102793.16;;;3.60;75.12
78623;BME280;67943;54.412;9.502;2023-03-01T18:28:47;102794.81;;;3.58;75.10
78623;BME280;67943;54.412;9.502;2023-03-01T18:33:53;102804.50;;;3.62;75.19
78623;BME280;67943;54.412;9.502;2023-03-01T18:38:55;102803.19;;;3.51;75.63
78623;BME280;67943;54.412;9.502;2023-03-01T18:43:57;102805.66;;;3.46;75.65
78623;BME280;67943;54.412;9.502;2023-03-01T18:49:00;102804.69;;;3.44;75.27
78623;BME280;67943;54.412;9.502;2023-03-01T18:54:02;102809.09;;;3.47;75.20
78623;BME280;67943;54.412;9.502;2023-03-01T18:59:04;102807.09;;;3.39;75.47
78623;BME280;67943;54.412;9.502;2023-03-01T19:04:07;102806.34;;;3.42;75.19
78623;BME280;67943;54.412;9.502;2023-03-01T19:09:10;102798.34;;;3.37;75.59
78623;BME280;67943;54.412;9.502;2023-03-01T19:14:12;102797.47;;;3.37;75.74
78623;BME280;67943;54.412;9.502;2023-03-01T19:19:14;102794.91;;;3.38;75.83
78623;BME280;67943;54.412;9.502;2023-03-01T19:24:16;102806.22;;;3.39;75.89
78623;BME280;67943;54.412;9.502;2023-03-01T19:29:18;102798.09;;;3.31;75.80
78623;BME280;67943;54.412;9.502;2023-03-01T19:34:20;102790.09;;;3.27;75.97
78623;BME280;67943;54.412;9.502;2023-03-01T19:39:24;102801.34;;;3.26;76.32
78623;BME280;67943;54.412;9.502;2023-03-01T19:44:26;102797.03;;;3.26;76.50
78623;BME280;67943;54.412;9.502;2023-03-01T19:49:29;102795.13;;;3.22;76.19
78623;BME280;67943;54.412;9.502;2023-03-01T19:54:32;102809.44;;;3.11;76.58
78623;BME280;67943;54.412;9.502;2023-03-01T19:59:33;102810.00;;;3.04;76.54
78623;BME280;67943;54.412;9.502;2023-03-01T20:04:36;102809.03;;;3.02;76.86
78623;BME280;67943;54.412;9.502;2023-03-01T20:09:38;102812.41;;;2.99;76.67
78623;BME280;67943;54.412;9.502;2023-03-01T20:14:40;102816.72;;;2.99;76.66
78623;BME280;67943;54.412;9.502;2023-03-01T20:19:43;102813.22;;;2.98;76.40
78623;BME280;67943;54.412;9.502;2023-03-01T20:24:45;102811.94;;;2.89;76.98
78623;BME280;67943;54.412;9.502;2023-03-01T20:29:46;102813.47;;;2.84;77.08
78623;BME280;67943;54.412;9.502;2023-03-01T20:34:49;102813.72;;;2.90;77.20
78623;BME280;67943;54.412;9.502;2023-03-01T20:39:51;102816.22;;;2.87;77.44
78623;BME280;67943;54.412;9.502;2023-03-01T20:44:52;102808.50;;;2.90;77.60
78623;BME280;67943;54.412;9.502;2023-03-01T20:49:55;102813.72;;;2.90;77.45
78623;BME280;67943;54.412;9.502;2023-03-01T20:54:59;102817.03;;;2.86;77.38
78623;BME280;67943;54.412;9.502;2023-03-01T21:00:00;102812.78;;;2.88;77.40
78623;BME280;67943;54.412;9.502;2023-03-01T21:05:05;102822.09;;;2.83;77.59
78623;BME280;67943;54.412;9.502;2023-03-01T21:10:08;102805.56;;;2.81;77.64
78623;BME280;67943;54.412;9.502;2023-03-01T21:15:10;102802.69;;;2.75;78.27
78623;BME280;67943;54.412;9.502;2023-03-01T21:20:13;102802.56;;;2.71;78.21
78623;BME280;67943;54.412;9.502;2023-03-01T21:25:14;102794.97;;;2.76;78.28
78623;BME280;67943;54.412;9.502;2023-03-01T21:30:16;102793.94;;;2.72;78.29
78623;BME280;67943;54.412;9.502;2023-03-01T21:35:19;102795.56;;;2.70;78.56
78623;BME280;67943;54.412;9.502;2023-03-01T21:40:20;102806.09;;;2.74;78.57
78623;BME280;67943;54.412;9.502;2023-03-01T21:45:22;102798.31;;;2.74;78.43
78623;BME280;67943;54.412;9.502;2023-03-01T21:50:25;102795.72;;;2.74;78.56
78623;BME280;67943;54.412;9.502;2023-03-01T21:55:26;102789.75;;;2.76;78.56
78623;BME280;67943;54.412;9.502;2023-03-01T22:00:28;102788.72;;;2.72;78.42
78623;BME280;67943;54.412;9.502;2023-03-01T22:05:30;102786.06;;;2.71;78.61
78623;BME280;67943;54.412;9.502;2023-03-01T22:10:32;102774.78;;;2.70;78.60
78623;BME280;67943;54.412;9.502;2023-03-01T22:15:33;102784.78;;;2.61;79.07
78623;BME280;67943;54.412;9.502;2023-03-01T22:20:36;102780.91;;;2.52;79.29
78623;BME280;67943;54.412;9.502;2023-03-01T22:25:40;102786.13;;;2.52;79.44
78623;BME280;67943;54.412;9.502;2023-03-01T22:30:43;102784.97;;;2.45;79.59
78623;BME280;67943;54.412;9.502;2023-03-01T22:35:45;102781.81;;;2.33;79.81
78623;BME280;67943;54.412;9.502;2023-03-01T22:40:54;102792.47;;;2.39;79.93
78623;BME280;67943;54.412;9.502;2023-03-01T22:45:56;102799.66;;;2.45;79.33
78623;BME280;67943;54.412;9.502;2023-03-01T22:51:00;102795.28;;;2.44;79.48
78623;BME280;67943;54.412;9.502;2023-03-01T22:56:10;102782.38;;;2.45;79.42
78623;BME280;67943;54.412;9.502;2023-03-01T23:01:13;102781.41;;;2.43;79.23
78623;BME280;67943;54.412;9.502;2023-03-01T23:06:17;102783.13;;;2.43;79.12
78623;BME280;67943;54.412;9.502;2023-03-01T23:11:20;102786.31;;;2.37;79.04
78623;BME280;67943;54.412;9.502;2023-03-01T23:16:22;102779.03;;;2.28;79.57
78623;BME280;67943;54.412;9.502;2023-03-01T23:21:26;102781.56;;;2.27;79.55
78623;BME280;67943;54.412;9.502;2023-03-01T23:26:28;102790.13;;;2.24;79.54
78623;BME280;67943;54.412;9.502;2023-03-01T23:31:30;102783.06;;;2.22;79.58
78623;BME280;67943;54.412;9.502;2023-03-01T23:36:33;102790.72;;;2.19;79.63
78623;BME280;67943;54.412;9.502;2023-03-01T23:41:35;102770.50;;;2.12;79.72
78623;BME280;67943;54.412;9.502;2023-03-01T23:46:36;102780.81;;;2.10;80.06
78623;BME280;67943;54.412;9.502;2023-03-01T23:51:40;102778.06;;;2.07;80.08
78623;BME280;67943;54.412;9.502;2023-03-01T23:56:44;102774.88;;;2.13;80.15
